Terminal Aerodrome Forecast
Issued by NWS

Home | Current Version | Previous Version | Text Only | Print | Product List | Glossary On
Versions: 1 2 3 4 5 6 7 8 9 10 11 12 13 14 15
000
FTUS45 KGGW 281100 RRA
TAFSDY
TAF
KSDY 281147Z 2812/2912 VRB06KT 1/2SM FG BKN002
      TEMPO 2812/2814 5SM BR SCT005
     FM281400 30008KT P6SM BKN070
     FM281800 32009KT P6SM VCTS BKN060CB
     FM290000 36015G25KT P6SM VCSH BKN070
      AMD LTD TO CLD VIS AND WIND=

USA.gov is the U.S. government's official web portal to all federal, state and local government web resources and services.